createdAt,value
2019-04-21T00:01:02.883Z,1021.25
2019-04-21T00:01:59.696Z,1021.32
2019-04-21T00:03:07.437Z,1021.30
2019-04-21T00:04:12.429Z,1021.30
2019-04-21T00:05:28.089Z,1021.27
2019-04-21T00:06:22.490Z,1021.31
2019-04-21T00:07:28.058Z,1021.29
2019-04-21T00:08:33.647Z,1021.23
2019-04-21T00:09:34.215Z,1021.25
2019-04-21T00:10:36.373Z,1021.24
2019-04-21T00:11:35.592Z,1021.23
2019-04-21T00:12:28.362Z,1021.24
2019-04-21T00:13:28.000Z,1021.22
2019-04-21T00:14:29.090Z,1021.20
2019-04-21T00:15:27.632Z,1021.23
2019-04-21T00:16:25.213Z,1021.24
2019-04-21T00:17:24.435Z,1021.22
2019-04-21T00:18:23.275Z,1021.22
2019-04-21T00:19:28.081Z,1021.24
2019-04-21T00:20:35.259Z,1021.24
2019-04-21T00:21:34.562Z,1021.24
2019-04-21T00:22:42.132Z,1021.27
2019-04-21T00:23:41.163Z,1021.29
2019-04-21T00:24:44.728Z,1021.25
2019-04-21T00:25:46.137Z,1021.29
2019-04-21T00:26:48.130Z,1021.27
2019-04-21T00:27:51.968Z,1021.25
2019-04-21T00:28:59.483Z,1021.30
2019-04-21T00:29:58.492Z,1021.24
2019-04-21T00:30:56.869Z,1021.21
2019-04-21T00:31:56.659Z,1021.26
2019-04-21T00:32:52.504Z,1021.22
2019-04-21T00:33:45.043Z,1021.20
2019-04-21T00:34:50.993Z,1021.22
2019-04-21T00:35:52.917Z,1021.16
2019-04-21T00:36:57.363Z,1021.12
2019-04-21T00:38:08.307Z,1021.17
2019-04-21T00:39:20.698Z,1021.16
2019-04-21T00:40:09.223Z,1021.16
2019-04-21T00:41:16.136Z,1021.10
2019-04-21T00:42:06.707Z,1021.13
2019-04-21T00:43:13.693Z,1021.04
2019-04-21T00:44:09.679Z,1021.05
2019-04-21T00:45:11.962Z,1021.05
2019-04-21T00:46:08.482Z,1021.03
2019-04-21T00:47:24.140Z,1021.06
2019-04-21T00:48:22.991Z,1021.00
2019-04-21T00:49:22.064Z,1021.02
2019-04-21T00:50:26.710Z,1020.98
2019-04-21T00:51:40.908Z,1021.02
2019-04-21T00:53:41.861Z,1021.00
2019-04-21T00:54:32.802Z,1020.99
2019-04-21T00:55:38.563Z,1021.01
2019-04-21T00:56:41.028Z,1021.04
2019-04-21T00:57:41.263Z,1021.01
2019-04-21T00:58:39.303Z,1021.01
2019-04-21T00:59:43.575Z,1020.99
2019-04-21T01:00:42.944Z,1021.02
2019-04-21T01:01:46.266Z,1021.02
2019-04-21T01:02:50.990Z,1021.01
2019-04-21T01:03:45.895Z,1021.02
2019-04-21T01:04:57.652Z,1020.99
2019-04-21T01:05:54.773Z,1021.00
2019-04-21T01:06:48.074Z,1021.04
2019-04-21T01:07:48.016Z,1021.02
2019-04-21T01:08:47.348Z,1021.02
2019-04-21T01:09:48.803Z,1021.00
2019-04-21T01:10:48.953Z,1021.01
2019-04-21T01:12:00.232Z,1021.03
2019-04-21T01:12:54.720Z,1021.00
2019-04-21T01:13:52.139Z,1020.96
2019-04-21T01:15:04.719Z,1020.96
2019-04-21T01:16:21.030Z,1020.96
2019-04-21T01:17:03.849Z,1020.93
2019-04-21T01:18:07.715Z,1020.96
2019-04-21T01:19:05.011Z,1020.94
2019-04-21T01:20:01.168Z,1020.92
2019-04-21T01:20:48.234Z,1020.95
2019-04-21T01:21:49.640Z,1020.91
2019-04-21T01:22:51.604Z,1020.94
2019-04-21T01:23:55.627Z,1020.91
2019-04-21T01:25:01.310Z,1020.93
2019-04-21T01:26:06.827Z,1020.89
2019-04-21T01:27:06.357Z,1020.91
2019-04-21T01:28:16.912Z,1020.89
2019-04-21T01:29:15.454Z,1020.88
2019-04-21T01:30:22.518Z,1020.88
2019-04-21T01:31:17.151Z,1020.90
2019-04-21T01:32:24.243Z,1020.92
2019-04-21T01:33:26.308Z,1020.86
2019-04-21T01:34:29.172Z,1020.83
2019-04-21T01:35:26.995Z,1020.88
2019-04-21T01:36:28.915Z,1020.85
2019-04-21T01:37:39.954Z,1020.89
2019-04-21T01:38:34.199Z,1020.84
2019-04-21T01:39:34.860Z,1020.87
2019-04-21T01:40:33.760Z,1020.81
2019-04-21T01:41:42.954Z,1020.83
2019-04-21T01:42:43.238Z,1020.85
2019-04-21T01:43:42.778Z,1020.88
2019-04-21T01:44:43.060Z,1020.83
2019-04-21T01:45:42.409Z,1020.83
2019-04-21T01:46:40.883Z,1020.85
2019-04-21T01:47:40.909Z,1020.85
2019-04-21T01:48:46.046Z,1020.86
2019-04-21T01:49:36.999Z,1020.82
2019-04-21T01:50:47.222Z,1020.82
2019-04-21T01:52:05.620Z,1020.82
2019-04-21T01:52:55.998Z,1020.84
2019-04-21T01:53:57.946Z,1020.82
2019-04-21T01:54:57.654Z,1020.75
2019-04-21T01:55:54.588Z,1020.76
2019-04-21T01:56:57.312Z,1020.75
2019-04-21T01:57:57.635Z,1020.73
2019-04-21T01:58:50.397Z,1020.73
2019-04-21T01:59:54.878Z,1020.71
2019-04-21T02:00:56.773Z,1020.71
2019-04-21T02:02:08.076Z,1020.71
2019-04-21T02:03:19.240Z,1020.70
2019-04-21T02:04:12.169Z,1020.68
2019-04-21T02:05:18.757Z,1020.67
2019-04-21T02:06:18.223Z,1020.66
2019-04-21T02:07:14.856Z,1020.63
2019-04-21T02:08:13.473Z,1020.65
2019-04-21T02:09:14.012Z,1020.66
2019-04-21T02:10:19.501Z,1020.63
2019-04-21T02:11:40.205Z,1020.63
2019-04-21T02:12:19.975Z,1020.65
2019-04-21T02:13:17.141Z,1020.60
2019-04-21T02:15:29.926Z,1020.63
2019-04-21T02:16:24.935Z,1020.62
2019-04-21T02:17:40.734Z,1020.63
2019-04-21T02:18:27.548Z,1020.62
2019-04-21T02:19:26.663Z,1020.57
2019-04-21T02:20:24.487Z,1020.61
2019-04-21T02:21:27.270Z,1020.58
2019-04-21T02:22:46.739Z,1020.64
2019-04-21T02:23:38.098Z,1020.60
2019-04-21T02:24:42.095Z,1020.61
2019-04-21T02:25:38.384Z,1020.58
2019-04-21T02:26:42.391Z,1020.59
2019-04-21T02:27:42.697Z,1020.62
2019-04-21T02:28:50.248Z,1020.54
2019-04-21T02:29:48.731Z,1020.56
2019-04-21T02:32:04.259Z,1020.51
2019-04-21T02:33:18.646Z,1020.54
2019-04-21T02:33:58.575Z,1020.51
2019-04-21T02:35:23.795Z,1020.54
2019-04-21T02:37:28.650Z,1020.54
2019-04-21T02:38:08.882Z,1020.53
2019-04-21T02:39:15.845Z,1020.51
2019-04-21T02:41:09.496Z,1020.49
2019-04-21T02:42:31.536Z,1020.52
2019-04-21T02:43:19.147Z,1020.49
2019-04-21T02:44:16.002Z,1020.48
2019-04-21T02:45:19.071Z,1020.46
2019-04-21T02:46:27.104Z,1020.49
2019-04-21T02:47:33.821Z,1020.47
2019-04-21T02:48:35.302Z,1020.43
2019-04-21T02:51:37.004Z,1020.41
2019-04-21T02:54:06.776Z,1020.42
2019-04-21T02:55:31.224Z,1020.40
2019-04-21T02:56:46.100Z,1020.40
2019-04-21T02:58:41.654Z,1020.34
2019-04-21T02:59:42.405Z,1020.35
2019-04-21T03:00:49.907Z,1020.35
2019-04-21T03:01:49.787Z,1020.32
2019-04-21T03:03:43.663Z,1020.29
2019-04-21T03:05:50.839Z,1020.25
2019-04-21T03:06:59.507Z,1020.24
2019-04-21T03:07:55.491Z,1020.26
2019-04-21T03:09:01.215Z,1020.17
2019-04-21T03:09:51.191Z,1020.16
2019-04-21T03:11:06.546Z,1020.12
2019-04-21T03:12:05.319Z,1020.09
2019-04-21T03:13:03.547Z,1020.09
2019-04-21T03:14:05.886Z,1020.10
2019-04-21T03:15:06.251Z,1020.08
2019-04-21T03:16:17.106Z,1020.10
2019-04-21T03:17:06.788Z,1020.05
2019-04-21T03:18:26.447Z,1020.07
2019-04-21T03:19:17.589Z,1020.07
2019-04-21T03:20:14.814Z,1020.04
2019-04-21T03:22:21.037Z,1020.08
2019-04-21T03:23:21.038Z,1020.04
2019-04-21T03:24:22.649Z,1020.07
2019-04-21T03:25:37.175Z,1020.04
2019-04-21T03:26:28.971Z,1020.05
2019-04-21T03:27:28.838Z,1020.03
2019-04-21T03:28:22.201Z,1020.02
2019-04-21T03:29:30.838Z,1019.99
2019-04-21T03:30:44.901Z,1019.99
2019-04-21T03:31:49.489Z,1019.97
2019-04-21T03:39:44.909Z,1019.98
2019-04-21T03:41:48.089Z,1020.01
2019-04-21T03:44:12.339Z,1019.96
2019-04-21T03:44:45.625Z,1019.94
2019-04-21T03:45:56.415Z,1019.96
2019-04-21T03:46:56.016Z,1019.91
2019-04-21T03:47:53.219Z,1019.90
2019-04-21T03:50:56.307Z,1019.93
2019-04-21T03:52:07.445Z,1019.92
2019-04-21T03:53:02.919Z,1019.92
2019-04-21T03:54:00.053Z,1019.88
2019-04-21T03:55:19.337Z,1019.91
2019-04-21T03:56:12.966Z,1019.86
2019-04-21T03:58:19.590Z,1019.89
2019-04-21T03:59:03.398Z,1019.82
2019-04-21T04:00:21.624Z,1019.86
2019-04-21T04:01:11.850Z,1019.85
2019-04-21T04:02:22.968Z,1019.86
2019-04-21T04:03:35.156Z,1019.85
2019-04-21T04:05:29.705Z,1019.90
2019-04-21T04:06:20.529Z,1019.92
2019-04-21T04:07:44.005Z,1019.94
2019-04-21T04:08:31.529Z,1019.93
2019-04-21T04:11:37.792Z,1019.93
2019-04-21T04:12:28.558Z,1019.91
2019-04-21T04:13:39.693Z,1019.89
2019-04-21T04:14:38.823Z,1019.92
2019-04-21T04:15:39.164Z,1019.89
2019-04-21T04:16:47.477Z,1019.95
2019-04-21T04:17:36.631Z,1019.88
2019-04-21T04:18:51.207Z,1019.87
2019-04-21T04:19:40.004Z,1019.91
2019-04-21T04:21:00.345Z,1019.91
2019-04-21T04:21:47.810Z,1019.89
2019-04-21T04:22:48.086Z,1019.92
2019-04-21T04:24:49.454Z,1019.87
2019-04-21T04:25:49.421Z,1019.88
2019-04-21T04:27:59.477Z,1019.89
2019-04-21T04:29:01.304Z,1019.88
2019-04-21T04:29:59.319Z,1019.89
2019-04-21T04:31:05.663Z,1019.89
2019-04-21T04:32:56.661Z,1019.93
2019-04-21T04:34:05.056Z,1019.94
2019-04-21T04:36:13.089Z,1019.94
2019-04-21T04:37:13.629Z,1019.90
2019-04-21T04:38:15.408Z,1019.96
2019-04-21T04:39:26.099Z,1019.91
2019-04-21T04:40:13.724Z,1019.91
2019-04-21T04:41:16.268Z,1019.93
2019-04-21T04:42:26.757Z,1019.91
2019-04-21T04:43:19.276Z,1019.93
2019-04-21T04:44:26.530Z,1019.92
2019-04-21T04:45:26.573Z,1019.94
2019-04-21T04:46:17.881Z,1019.93
2019-04-21T04:47:35.293Z,1019.91
2019-04-21T04:48:24.181Z,1019.94
2019-04-21T04:49:40.452Z,1019.92
2019-04-21T04:50:29.868Z,1019.93
2019-04-21T04:51:36.443Z,1019.92
2019-04-21T04:52:32.668Z,1019.92
2019-04-21T04:53:45.906Z,1019.92
2019-04-21T04:54:46.931Z,1019.94
2019-04-21T04:55:33.217Z,1019.92
2019-04-21T04:57:49.216Z,1019.93
2019-04-21T04:59:19.329Z,1019.90
2019-04-21T04:59:42.587Z,1019.89
2019-04-21T05:01:57.675Z,1019.90
2019-04-21T05:02:48.908Z,1019.94
2019-04-21T05:03:50.933Z,1019.94
2019-04-21T05:05:01.635Z,1019.90
2019-04-21T05:05:57.563Z,1019.93
2019-04-21T05:09:03.482Z,1019.89
2019-04-21T05:09:54.072Z,1019.90
2019-04-21T05:11:08.552Z,1019.92
2019-04-21T05:11:55.820Z,1019.91
2019-04-21T05:13:01.177Z,1019.89
2019-04-21T05:15:09.600Z,1019.85
2019-04-21T05:17:03.877Z,1019.85
2019-04-21T05:18:05.282Z,1019.85
2019-04-21T05:20:11.561Z,1019.83
2019-04-21T05:21:28.839Z,1019.84
2019-04-21T05:22:17.225Z,1019.86
2019-04-21T05:23:10.546Z,1019.83
2019-04-21T05:24:09.720Z,1019.84
2019-04-21T05:25:06.852Z,1019.92
2019-04-21T05:26:03.181Z,1019.93
2019-04-21T05:27:07.380Z,1019.94
2019-04-21T05:28:08.999Z,1019.87
2019-04-21T05:29:06.976Z,1019.87
2019-04-21T05:30:22.101Z,1019.89
2019-04-21T05:31:19.828Z,1019.90
2019-04-21T05:32:17.190Z,1019.85
2019-04-21T05:33:19.081Z,1019.89
2019-04-21T05:34:22.006Z,1019.88
2019-04-21T05:35:26.767Z,1019.89
2019-04-21T05:36:27.892Z,1019.83
2019-04-21T05:37:25.822Z,1019.87
2019-04-21T05:38:27.395Z,1019.98
2019-04-21T05:39:23.404Z,1020.04
2019-04-21T05:40:24.355Z,1019.94
2019-04-21T05:41:21.866Z,1020.01
2019-04-21T05:42:30.306Z,1020.19
2019-04-21T05:43:32.505Z,1020.28
2019-04-21T05:44:43.041Z,1020.29
2019-04-21T05:45:40.996Z,1020.07
2019-04-21T05:46:40.897Z,1019.91
2019-04-21T05:47:50.100Z,1019.85
2019-04-21T05:48:39.166Z,1019.82
2019-04-21T05:49:48.251Z,1019.82
2019-04-21T05:50:46.233Z,1019.83
2019-04-21T05:51:39.826Z,1019.86
2019-04-21T05:53:56.064Z,1019.92
2019-04-21T05:54:56.894Z,1020.04
2019-04-21T05:55:57.085Z,1020.23
2019-04-21T05:56:55.502Z,1020.42
2019-04-21T05:58:01.285Z,1020.42
2019-04-21T05:58:58.100Z,1020.25
2019-04-21T05:59:59.402Z,1020.20
2019-04-21T06:02:15.163Z,1019.84
2019-04-21T06:04:14.004Z,1019.93
2019-04-21T06:05:24.610Z,1019.96
2019-04-21T06:06:13.793Z,1019.90
2019-04-21T06:07:19.061Z,1019.84
2019-04-21T06:08:13.209Z,1019.90
2019-04-21T06:09:17.855Z,1019.94
2019-04-21T06:10:12.325Z,1020.00
2019-04-21T06:11:17.903Z,1020.06
2019-04-21T06:12:14.768Z,1020.04
2019-04-21T06:14:21.714Z,1020.24
2019-04-21T06:15:26.599Z,1020.07
2019-04-21T06:16:30.270Z,1019.96
2019-04-21T06:17:30.281Z,1019.91
2019-04-21T06:18:40.351Z,1019.89
2019-04-21T06:19:36.955Z,1019.91
2019-04-21T06:20:28.781Z,1019.88
2019-04-21T06:21:33.248Z,1019.87
2019-04-21T06:22:33.092Z,1019.88
2019-04-21T06:23:36.621Z,1019.89
2019-04-21T06:24:42.340Z,1019.90
2019-04-21T06:25:48.713Z,1019.83
2019-04-21T06:27:40.674Z,1019.88
2019-04-21T06:28:47.016Z,1019.85
2019-04-21T06:29:45.215Z,1019.85
2019-04-21T06:30:54.676Z,1019.86
2019-04-21T06:33:55.867Z,1019.88
2019-04-21T06:35:12.424Z,1019.84
2019-04-21T06:36:12.687Z,1019.83
2019-04-21T06:37:01.728Z,1019.86
2019-04-21T06:37:56.960Z,1019.87
2019-04-21T06:40:16.930Z,1019.84
2019-04-21T06:41:06.196Z,1019.86
2019-04-21T06:41:58.649Z,1019.84
2019-04-21T06:43:13.000Z,1019.85
2019-04-21T06:44:07.620Z,1019.83
2019-04-21T06:45:11.750Z,1019.83
2019-04-21T06:46:12.262Z,1019.85
2019-04-21T06:47:15.579Z,1019.85
2019-04-21T06:48:10.987Z,1019.85
2019-04-21T06:49:08.113Z,1019.86
2019-04-21T06:50:19.096Z,1019.85
2019-04-21T06:51:16.318Z,1019.86
2019-04-21T06:52:30.487Z,1019.82
2019-04-21T06:53:20.659Z,1019.84
2019-04-21T06:54:23.007Z,1019.86
2019-04-21T06:55:20.157Z,1019.83
2019-04-21T06:56:21.816Z,1019.86
2019-04-21T06:57:23.124Z,1019.82
2019-04-21T06:58:25.815Z,1019.82
2019-04-21T06:59:21.074Z,1019.82
2019-04-21T07:00:29.008Z,1019.81
2019-04-21T07:01:33.035Z,1019.78
2019-04-21T07:02:50.697Z,1019.76
2019-04-21T07:03:34.752Z,1019.76
2019-04-21T07:04:36.507Z,1019.79
2019-04-21T07:05:41.233Z,1019.89
2019-04-21T07:06:44.903Z,1019.84
2019-04-21T07:07:35.144Z,1019.82
2019-04-21T07:08:46.192Z,1019.79
2019-04-21T07:09:36.440Z,1019.78
2019-04-21T07:10:38.499Z,1019.78
2019-04-21T07:11:36.807Z,1019.78
2019-04-21T07:12:45.302Z,1019.81
2019-04-21T07:13:50.697Z,1019.75
2019-04-21T07:14:48.266Z,1019.78
2019-04-21T07:17:05.062Z,1019.78
2019-04-21T07:17:53.998Z,1019.82
2019-04-21T07:19:00.018Z,1019.78
2019-04-21T07:20:00.178Z,1019.76
2019-04-21T07:20:53.230Z,1019.78
2019-04-21T07:21:58.904Z,1019.79
2019-04-21T07:23:01.803Z,1019.79
2019-04-21T07:24:05.823Z,1019.80
2019-04-21T07:25:04.395Z,1019.83
2019-04-21T07:26:05.814Z,1019.78
2019-04-21T07:27:10.251Z,1019.64
2019-04-21T07:28:04.073Z,1019.77
2019-04-21T07:29:07.858Z,1019.60
2019-04-21T07:30:14.904Z,1019.81
2019-04-21T07:31:22.768Z,1019.79
2019-04-21T07:32:18.361Z,1019.76
2019-04-21T07:33:33.393Z,1019.65
2019-04-21T07:34:23.977Z,1019.76
2019-04-21T07:35:31.775Z,1019.72
2019-04-21T07:36:22.074Z,1019.68
2019-04-21T07:37:17.424Z,1019.58
2019-04-21T07:38:22.648Z,1019.57
2019-04-21T07:39:25.117Z,1019.53
2019-04-21T07:40:22.375Z,1019.55
2019-04-21T07:41:18.594Z,1019.57
2019-04-21T07:42:24.086Z,1019.50
2019-04-21T07:43:28.508Z,1019.54
2019-04-21T07:44:25.163Z,1019.48
2019-04-21T07:45:28.015Z,1019.48
2019-04-21T07:46:25.701Z,1019.46
2019-04-21T07:47:34.648Z,1019.46
2019-04-21T07:48:37.590Z,1019.50
2019-04-21T07:49:44.693Z,1019.50
2019-04-21T07:50:40.258Z,1019.44
2019-04-21T07:51:45.629Z,1019.47
2019-04-21T07:52:41.019Z,1019.46
2019-04-21T07:53:49.451Z,1019.45
2019-04-21T07:54:57.197Z,1019.45
2019-04-21T07:56:35.190Z,1019.40
2019-04-21T07:57:44.207Z,1019.37
2019-04-21T07:58:53.705Z,1019.38
2019-04-21T08:00:59.031Z,1019.38
2019-04-21T08:01:55.210Z,1019.32
2019-04-21T08:02:54.273Z,1019.34
2019-04-21T08:04:03.793Z,1019.38
2019-04-21T08:05:10.278Z,1019.37
2019-04-21T08:06:58.188Z,1019.33
2019-04-21T08:07:59.720Z,1019.36
2019-04-21T08:09:07.157Z,1019.37
2019-04-21T08:10:02.883Z,1019.37
2019-04-21T08:11:02.962Z,1019.36
2019-04-21T08:12:04.157Z,1019.39
2019-04-21T08:13:11.550Z,1019.36
2019-04-21T08:14:11.240Z,1019.30
2019-04-21T08:15:24.888Z,1019.26
2019-04-21T08:16:17.451Z,1019.33
2019-04-21T08:17:16.726Z,1019.31
2019-04-21T08:18:20.381Z,1019.32
2019-04-21T08:19:18.784Z,1019.25
2019-04-21T08:20:18.700Z,1019.22
2019-04-21T08:21:23.643Z,1019.27
2019-04-21T08:22:27.171Z,1019.31
2019-04-21T08:23:25.422Z,1019.26
2019-04-21T08:25:30.802Z,1019.25
2019-04-21T08:26:34.507Z,1019.25
2019-04-21T08:27:37.340Z,1019.22
2019-04-21T08:28:35.444Z,1019.20
2019-04-21T08:30:39.332Z,1019.20
2019-04-21T08:31:51.664Z,1019.23
2019-04-21T08:32:54.961Z,1019.18
2019-04-21T08:34:43.224Z,1019.24
2019-04-21T08:36:04.722Z,1019.26
2019-04-21T08:36:40.255Z,1019.20
2019-04-21T08:37:43.086Z,1019.20
2019-04-21T08:38:48.489Z,1019.10
2019-04-21T08:39:59.397Z,1019.08
2019-04-21T08:40:45.805Z,1019.05
2019-04-21T08:42:51.061Z,1019.08
2019-04-21T08:43:54.678Z,1019.07
2019-04-21T08:45:03.935Z,1019.09
2019-04-21T08:46:01.597Z,1019.05
2019-04-21T08:47:00.218Z,1019.06
2019-04-21T08:48:02.936Z,1019.03
2019-04-21T08:49:04.388Z,1019.11
2019-04-21T08:50:00.716Z,1019.11
2019-04-21T08:51:14.201Z,1019.11
2019-04-21T08:52:09.785Z,1019.06
2019-04-21T08:53:09.427Z,1019.05
2019-04-21T08:54:13.481Z,1018.98
2019-04-21T08:55:12.189Z,1019.08
2019-04-21T08:56:15.011Z,1019.03
2019-04-21T08:57:14.581Z,1019.07
2019-04-21T08:58:27.779Z,1019.19
2019-04-21T08:59:19.308Z,1019.11
2019-04-21T09:00:20.061Z,1019.15
2019-04-21T09:01:25.827Z,1019.17
2019-04-21T09:02:23.302Z,1019.16
2019-04-21T09:03:25.508Z,1019.09
2019-04-21T09:04:23.404Z,1019.09
2019-04-21T09:05:26.149Z,1019.08
2019-04-21T09:06:32.308Z,1019.08
2019-04-21T09:07:36.228Z,1019.09
2019-04-21T09:08:31.646Z,1019.04
2019-04-21T09:09:30.708Z,1019.03
2019-04-21T09:10:31.109Z,1019.02
2019-04-21T09:11:30.834Z,1019.02
2019-04-21T09:13:38.396Z,1018.94
2019-04-21T09:14:39.457Z,1018.92
2019-04-21T09:15:34.921Z,1018.94
2019-04-21T09:16:35.552Z,1018.88
2019-04-21T09:17:35.548Z,1018.89
2019-04-21T09:18:38.079Z,1018.85
2019-04-21T09:19:51.851Z,1018.82
2019-04-21T09:20:52.107Z,1018.74
2019-04-21T09:21:49.989Z,1018.74
2019-04-21T09:22:49.071Z,1018.76
2019-04-21T09:23:52.215Z,1018.76
2019-04-21T09:24:53.609Z,1018.77
2019-04-21T09:25:55.468Z,1018.79
2019-04-21T09:26:51.490Z,1018.82
2019-04-21T09:27:56.214Z,1018.77
2019-04-21T09:28:48.058Z,1018.71
2019-04-21T09:29:46.776Z,1018.71
2019-04-21T09:30:48.982Z,1018.73
2019-04-21T09:31:46.025Z,1018.69
2019-04-21T09:32:44.561Z,1018.64
2019-04-21T09:33:50.167Z,1018.66
2019-04-21T09:34:48.916Z,1018.64
2019-04-21T09:35:54.594Z,1018.60
2019-04-21T09:36:54.435Z,1018.62
2019-04-21T09:38:00.238Z,1018.58
2019-04-21T09:39:01.168Z,1018.55
2019-04-21T09:39:55.931Z,1018.53
2019-04-21T09:40:56.204Z,1018.53
2019-04-21T09:41:59.101Z,1018.48
2019-04-21T09:43:02.355Z,1018.47
2019-04-21T09:43:59.712Z,1018.47
2019-04-21T09:45:03.157Z,1018.50
2019-04-21T09:46:02.043Z,1018.44
2019-04-21T09:47:05.212Z,1018.51
2019-04-21T09:48:10.149Z,1018.43
2019-04-21T09:49:11.907Z,1018.58
2019-04-21T09:50:09.579Z,1018.47
2019-04-21T09:51:09.040Z,1020.78
2019-04-21T09:52:16.981Z,1021.28
2019-04-21T09:53:20.920Z,1019.87
2019-04-21T09:54:20.665Z,1021.86
2019-04-21T09:55:19.651Z,1022.59
2019-04-21T09:56:18.558Z,1022.99
2019-04-21T09:57:29.968Z,1022.81
2019-04-21T09:58:27.343Z,1022.31
2019-04-21T09:59:26.221Z,1022.26
2019-04-21T10:00:26.561Z,1022.30
2019-04-21T10:01:29.877Z,1021.76
2019-04-21T10:02:35.653Z,1021.47
2019-04-21T10:03:26.346Z,1021.21
2019-04-21T10:04:27.167Z,1021.02
2019-04-21T10:05:29.641Z,1020.90
2019-04-21T10:06:30.665Z,1021.03
2019-04-21T10:07:35.639Z,1021.19
2019-04-21T10:08:34.057Z,1021.47
2019-04-21T10:09:35.442Z,1021.30
2019-04-21T10:10:36.338Z,1020.91
2019-04-21T10:11:37.632Z,1020.81
2019-04-21T10:12:38.388Z,1020.64
2019-04-21T10:13:39.920Z,1020.52
2019-04-21T10:14:41.194Z,1020.36
2019-04-21T10:15:42.628Z,1020.30
2019-04-21T10:16:44.957Z,1020.21
2019-04-21T10:17:45.581Z,1020.18
2019-04-21T10:18:48.079Z,1020.05
2019-04-21T10:19:48.514Z,1019.85
2019-04-21T10:20:51.176Z,1019.79
2019-04-21T10:21:52.009Z,1019.75
2019-04-21T10:22:53.068Z,1019.69
2019-04-21T10:23:54.242Z,1019.58
2019-04-21T10:24:56.293Z,1019.68
2019-04-21T10:25:56.895Z,1019.69
2019-04-21T10:26:58.984Z,1019.59
2019-04-21T10:28:01.199Z,1019.53
2019-04-21T10:29:08.611Z,1019.62
2019-04-21T10:30:03.660Z,1019.19
2019-04-21T10:31:04.727Z,1018.46
2019-04-21T10:32:05.850Z,1018.10
2019-04-21T10:33:08.194Z,1017.86
2019-04-21T10:34:09.344Z,1017.84
2019-04-21T10:35:10.776Z,1017.83
2019-04-21T10:36:11.158Z,1017.84
2019-04-21T10:37:14.923Z,1017.75
2019-04-21T10:38:26.168Z,1017.81
2019-04-21T10:39:17.835Z,1017.76
2019-04-21T10:40:19.096Z,1017.69
2019-04-21T10:41:21.381Z,1017.67
2019-04-21T10:42:21.990Z,1017.78
2019-04-21T10:43:24.373Z,1018.11
2019-04-21T10:44:25.260Z,1018.38
2019-04-21T10:45:26.191Z,1018.53
2019-04-21T10:46:28.763Z,1018.55
2019-04-21T10:47:29.331Z,1018.51
2019-04-21T10:48:31.773Z,1018.43
2019-04-21T10:49:32.659Z,1018.43
2019-04-21T10:50:33.185Z,1018.52
2019-04-21T10:51:35.152Z,1018.43
2019-04-21T10:52:37.297Z,1018.41
2019-04-21T10:53:38.588Z,1018.33
2019-04-21T10:55:02.361Z,1018.28
2019-04-21T10:55:54.093Z,1018.29
2019-04-21T10:56:43.743Z,1018.27
2019-04-21T10:57:44.312Z,1018.34
2019-04-21T10:58:44.559Z,1018.27
2019-04-21T10:59:47.949Z,1018.09
2019-04-21T11:00:48.321Z,1018.04
2019-04-21T11:01:49.183Z,1017.97
2019-04-21T11:02:50.670Z,1017.96
2019-04-21T11:03:51.384Z,1018.01
2019-04-21T11:04:52.819Z,1017.94
2019-04-21T11:05:54.663Z,1017.92
2019-04-21T11:06:57.105Z,1017.84
2019-04-21T11:08:08.998Z,1017.86
2019-04-21T11:09:01.018Z,1017.76
2019-04-21T11:10:00.021Z,1017.78
2019-04-21T11:11:01.624Z,1017.73
2019-04-21T11:12:04.089Z,1017.69
2019-04-21T11:13:04.902Z,1017.59
2019-04-21T11:14:06.480Z,1017.60
2019-04-21T11:15:07.288Z,1017.55
2019-04-21T11:16:08.899Z,1017.56
2019-04-21T11:17:10.195Z,1017.49
2019-04-21T11:18:12.157Z,1017.47
2019-04-21T11:19:13.636Z,1017.45
2019-04-21T11:20:15.055Z,1017.41
2019-04-21T11:21:16.534Z,1017.41
2019-04-21T11:22:16.807Z,1017.38
2019-04-21T11:23:20.552Z,1017.39
2019-04-21T11:24:20.886Z,1017.37
2019-04-21T11:25:21.978Z,1017.35
2019-04-21T11:26:24.170Z,1017.34
2019-04-21T11:27:24.685Z,1017.30
2019-04-21T11:28:27.084Z,1017.31
2019-04-21T11:29:28.508Z,1017.25
2019-04-21T11:30:29.755Z,1017.26
2019-04-21T11:31:31.037Z,1017.23
2019-04-21T11:32:32.784Z,1017.22
2019-04-21T11:33:33.391Z,1017.27
2019-04-21T11:34:34.525Z,1017.23
2019-04-21T11:35:37.105Z,1017.22
2019-04-21T11:36:37.475Z,1017.15
2019-04-21T11:37:39.841Z,1017.13
2019-04-21T11:38:58.484Z,1017.10
2019-04-21T11:39:50.066Z,1017.04
2019-04-21T11:40:43.375Z,1016.98
2019-04-21T11:41:45.631Z,1016.89
2019-04-21T11:42:45.964Z,1016.85
2019-04-21T11:43:47.189Z,1016.80
2019-04-21T11:44:49.403Z,1016.81
2019-04-21T11:45:50.533Z,1016.78
2019-04-21T11:46:52.099Z,1016.80
2019-04-21T11:47:52.815Z,1016.77
2019-04-21T11:48:54.731Z,1016.74
2019-04-21T11:49:56.995Z,1016.77
2019-04-21T11:50:57.324Z,1016.77
2019-04-21T11:51:58.706Z,1016.73
2019-04-21T11:53:01.129Z,1016.64
2019-04-21T11:54:01.243Z,1016.69
2019-04-21T11:55:02.764Z,1016.72
2019-04-21T11:56:04.772Z,1016.69
2019-04-21T11:57:12.454Z,1016.68
2019-04-21T11:58:07.638Z,1016.65
2019-04-21T11:59:08.324Z,1016.64
2019-04-21T12:00:09.771Z,1016.64
2019-04-21T12:01:11.639Z,1016.64
2019-04-21T12:02:12.598Z,1016.61
2019-04-21T12:03:15.364Z,1016.63
2019-04-21T12:04:16.097Z,1016.58
2019-04-21T12:05:17.299Z,1016.57
2019-04-21T12:06:19.343Z,1016.55
2019-04-21T12:07:19.676Z,1016.52
2019-04-21T12:08:30.534Z,1016.47
2019-04-21T12:09:23.027Z,1016.46
2019-04-21T12:10:23.881Z,1016.47
2019-04-21T12:11:25.264Z,1016.45
2019-04-21T12:12:27.420Z,1016.41
2019-04-21T12:13:28.034Z,1016.38
2019-04-21T12:14:30.146Z,1016.38
2019-04-21T12:15:31.447Z,1016.39
2019-04-21T12:16:33.027Z,1016.38
2019-04-21T12:17:34.084Z,1016.37
2019-04-21T12:18:34.885Z,1016.38
2019-04-21T12:19:36.732Z,1016.35
2019-04-21T12:20:37.695Z,1016.32
2019-04-21T12:21:50.469Z,1016.35
2019-04-21T12:22:41.183Z,1016.30
2019-04-21T12:23:42.613Z,1016.29
2019-04-21T12:24:43.345Z,1016.33
2019-04-21T12:25:45.313Z,1016.27
2019-04-21T12:26:46.353Z,1016.29
2019-04-21T12:27:47.833Z,1016.28
2019-04-21T12:28:50.029Z,1016.22
2019-04-21T12:29:51.517Z,1016.23
2019-04-21T12:30:51.768Z,1016.21
2019-04-21T12:31:53.782Z,1016.19
2019-04-21T12:32:55.952Z,1016.19
2019-04-21T12:33:56.152Z,1016.20
2019-04-21T12:34:57.818Z,1016.18
2019-04-21T12:35:59.885Z,1016.14
2019-04-21T12:37:01.199Z,1016.15
2019-04-21T12:38:02.791Z,1016.12
2019-04-21T12:39:05.117Z,1016.08
2019-04-21T12:40:04.298Z,1016.08
2019-04-21T12:41:06.553Z,1016.10
2019-04-21T12:42:07.118Z,1016.07
2019-04-21T12:43:08.547Z,1016.02
2019-04-21T12:44:10.741Z,1016.02
2019-04-21T12:45:11.363Z,1016.01
2019-04-21T12:46:13.856Z,1016.04
2019-04-21T12:47:14.312Z,1016.10
2019-04-21T12:48:15.917Z,1016.05
2019-04-21T12:49:17.869Z,1015.97
2019-04-21T12:50:18.328Z,1015.97
2019-04-21T12:51:19.822Z,1015.89
2019-04-21T12:52:21.861Z,1015.87
2019-04-21T12:53:23.401Z,1015.84
2019-04-21T12:54:23.970Z,1015.87
2019-04-21T12:55:30.620Z,1015.80
2019-04-21T12:56:27.443Z,1015.83
2019-04-21T12:57:31.101Z,1015.79
2019-04-21T12:58:29.574Z,1015.82
2019-04-21T12:59:32.503Z,1015.79
2019-04-21T13:00:33.230Z,1015.82
2019-04-21T13:01:34.952Z,1015.81
2019-04-21T13:02:35.794Z,1015.79
2019-04-21T13:03:37.532Z,1015.74
2019-04-21T13:04:38.023Z,1015.75
2019-04-21T13:05:39.987Z,1015.69
2019-04-21T13:06:41.516Z,1015.73
2019-04-21T13:07:43.619Z,1015.64
2019-04-21T13:08:51.853Z,1015.63
2019-04-21T13:09:46.320Z,1015.66
2019-04-21T13:10:46.499Z,1015.61
2019-04-21T13:11:48.885Z,1015.58
2019-04-21T13:12:49.978Z,1015.59
2019-04-21T13:13:50.629Z,1015.60
2019-04-21T13:14:54.387Z,1015.57
2019-04-21T13:15:53.538Z,1015.58
2019-04-21T13:16:55.144Z,1015.63
2019-04-21T13:17:56.319Z,1015.57
2019-04-21T13:18:57.761Z,1015.54
2019-04-21T13:19:59.131Z,1015.47
2019-04-21T13:21:02.170Z,1015.48